sensor_id;sensor_type;location;lat;lon;timestamp;P1;durP1;ratioP1;P2;durP2;ratioP2
54959;SDS011;40860;51.710;8.736;2023-12-29T00:02:50;3.13;;;1.33;;
54959;SDS011;40860;51.710;8.736;2023-12-29T00:06:54;4.07;;;1.27;;
54959;SDS011;40860;51.710;8.736;2023-12-29T00:11:05;2.80;;;1.23;;
54959;SDS011;40860;51.710;8.736;2023-12-29T00:15:08;3.65;;;1.17;;
54959;SDS011;40860;51.710;8.736;2023-12-29T00:19:11;3.30;;;1.20;;
54959;SDS011;40860;51.710;8.736;2023-12-29T00:23:18;3.75;;;1.38;;
54959;SDS011;40860;51.710;8.736;2023-12-29T00:27:22;2.92;;;1.60;;
54959;SDS011;40860;51.710;8.736;2023-12-29T00:31:25;3.60;;;1.23;;
54959;SDS011;40860;51.710;8.736;2023-12-29T00:35:28;6.07;;;1.23;;
54959;SDS011;40860;51.710;8.736;2023-12-29T00:39:31;4.22;;;1.02;;
54959;SDS011;40860;51.710;8.736;2023-12-29T00:43:42;4.65;;;1.15;;
54959;SDS011;40860;51.710;8.736;2023-12-29T00:47:45;4.53;;;1.10;;
54959;SDS011;40860;51.710;8.736;2023-12-29T00:51:49;4.10;;;1.60;;
54959;SDS011;40860;51.710;8.736;2023-12-29T00:55:53;3.53;;;1.10;;
54959;SDS011;40860;51.710;8.736;2023-12-29T00:59:57;3.78;;;1.20;;
54959;SDS011;40860;51.710;8.736;2023-12-29T01:04:00;5.43;;;0.90;;
54959;SDS011;40860;51.710;8.736;2023-12-29T01:08:03;4.70;;;1.20;;
54959;SDS011;40860;51.710;8.736;2023-12-29T01:12:06;3.55;;;1.05;;
54959;SDS011;40860;51.710;8.736;2023-12-29T01:16:10;2.20;;;0.95;;
54959;SDS011;40860;51.710;8.736;2023-12-29T01:20:13;3.00;;;1.10;;
54959;SDS011;40860;51.710;8.736;2023-12-29T01:24:16;4.57;;;0.95;;
54959;SDS011;40860;51.710;8.736;2023-12-29T01:28:26;4.07;;;1.10;;
54959;SDS011;40860;51.710;8.736;2023-12-29T01:32:31;3.35;;;1.25;;
54959;SDS011;40860;51.710;8.736;2023-12-29T01:36:34;3.45;;;1.00;;
54959;SDS011;40860;51.710;8.736;2023-12-29T01:40:42;3.83;;;1.00;;
54959;SDS011;40860;51.710;8.736;2023-12-29T01:44:47;5.22;;;1.08;;
54959;SDS011;40860;51.710;8.736;2023-12-29T01:48:55;3.25;;;0.93;;
54959;SDS011;40860;51.710;8.736;2023-12-29T01:53:01;3.85;;;0.80;;
54959;SDS011;40860;51.710;8.736;2023-12-29T01:57:06;2.88;;;1.05;;
54959;SDS011;40860;51.710;8.736;2023-12-29T02:01:10;3.03;;;0.80;;
54959;SDS011;40860;51.710;8.736;2023-12-29T02:05:16;3.83;;;1.00;;
54959;SDS011;40860;51.710;8.736;2023-12-29T02:09:19;4.63;;;1.10;;
54959;SDS011;40860;51.710;8.736;2023-12-29T02:13:24;4.72;;;1.00;;
54959;SDS011;40860;51.710;8.736;2023-12-29T02:17:27;4.80;;;1.00;;
54959;SDS011;40860;51.710;8.736;2023-12-29T02:21:38;3.30;;;1.10;;
54959;SDS011;40860;51.710;8.736;2023-12-29T02:25:42;5.00;;;1.33;;
54959;SDS011;40860;51.710;8.736;2023-12-29T02:29:48;1.95;;;0.75;;
54959;SDS011;40860;51.710;8.736;2023-12-29T02:33:58;3.90;;;1.00;;
54959;SDS011;40860;51.710;8.736;2023-12-29T02:38:07;1.52;;;0.70;;
54959;SDS011;40860;51.710;8.736;2023-12-29T02:42:14;4.20;;;1.00;;
54959;SDS011;40860;51.710;8.736;2023-12-29T02:46:16;3.90;;;1.00;;
54959;SDS011;40860;51.710;8.736;2023-12-29T02:50:20;3.83;;;1.33;;
54959;SDS011;40860;51.710;8.736;2023-12-29T02:54:22;2.72;;;1.15;;
54959;SDS011;40860;51.710;8.736;2023-12-29T02:58:27;4.28;;;0.95;;
54959;SDS011;40860;51.710;8.736;2023-12-29T03:02:30;3.33;;;1.00;;
54959;SDS011;40860;51.710;8.736;2023-12-29T03:06:33;4.05;;;1.17;;
54959;SDS011;40860;51.710;8.736;2023-12-29T03:10:35;4.50;;;1.20;;
54959;SDS011;40860;51.710;8.736;2023-12-29T03:14:40;2.70;;;1.20;;
54959;SDS011;40860;51.710;8.736;2023-12-29T03:18:43;4.43;;;1.25;;
54959;SDS011;40860;51.710;8.736;2023-12-29T03:22:47;2.85;;;1.05;;
54959;SDS011;40860;51.710;8.736;2023-12-29T03:26:50;3.78;;;1.23;;
54959;SDS011;40860;51.710;8.736;2023-12-29T03:30:54;6.45;;;1.45;;
54959;SDS011;40860;51.710;8.736;2023-12-29T03:34:57;6.35;;;1.42;;
54959;SDS011;40860;51.710;8.736;2023-12-29T03:39:00;5.93;;;1.70;;
54959;SDS011;40860;51.710;8.736;2023-12-29T03:43:03;5.97;;;1.55;;
54959;SDS011;40860;51.710;8.736;2023-12-29T03:47:09;5.75;;;1.60;;
54959;SDS011;40860;51.710;8.736;2023-12-29T03:51:12;7.03;;;1.63;;
54959;SDS011;40860;51.710;8.736;2023-12-29T03:55:15;4.20;;;1.52;;
54959;SDS011;40860;51.710;8.736;2023-12-29T03:59:18;3.42;;;1.45;;
54959;SDS011;40860;51.710;8.736;2023-12-29T04:03:22;5.10;;;1.50;;
54959;SDS011;40860;51.710;8.736;2023-12-29T04:07:25;1.48;;;1.23;;
54959;SDS011;40860;51.710;8.736;2023-12-29T04:11:28;4.28;;;1.48;;
54959;SDS011;40860;51.710;8.736;2023-12-29T04:15:31;3.08;;;1.40;;
54959;SDS011;40860;51.710;8.736;2023-12-29T04:19:35;5.28;;;1.90;;
54959;SDS011;40860;51.710;8.736;2023-12-29T04:23:38;5.50;;;1.67;;
54959;SDS011;40860;51.710;8.736;2023-12-29T04:27:42;4.03;;;1.58;;
54959;SDS011;40860;51.710;8.736;2023-12-29T04:31:45;1.60;;;1.25;;
54959;SDS011;40860;51.710;8.736;2023-12-29T04:35:51;3.05;;;1.20;;
54959;SDS011;40860;51.710;8.736;2023-12-29T04:39:54;4.95;;;1.35;;
54959;SDS011;40860;51.710;8.736;2023-12-29T04:43:57;4.65;;;1.40;;
54959;SDS011;40860;51.710;8.736;2023-12-29T04:48:00;3.50;;;1.23;;
54959;SDS011;40860;51.710;8.736;2023-12-29T04:52:05;3.42;;;1.13;;
54959;SDS011;40860;51.710;8.736;2023-12-29T04:56:08;1.35;;;0.95;;
54959;SDS011;40860;51.710;8.736;2023-12-29T05:00:11;1.83;;;0.88;;
54959;SDS011;40860;51.710;8.736;2023-12-29T05:04:15;2.15;;;1.27;;
54959;SDS011;40860;51.710;8.736;2023-12-29T05:08:22;4.00;;;1.15;;
54959;SDS011;40860;51.710;8.736;2023-12-29T05:12:25;1.80;;;0.95;;
54959;SDS011;40860;51.710;8.736;2023-12-29T05:16:30;4.68;;;1.15;;
54959;SDS011;40860;51.710;8.736;2023-12-29T05:20:35;1.77;;;0.88;;
54959;SDS011;40860;51.710;8.736;2023-12-29T05:24:41;5.15;;;1.30;;
54959;SDS011;40860;51.710;8.736;2023-12-29T05:28:47;2.58;;;1.15;;
54959;SDS011;40860;51.710;8.736;2023-12-29T05:32:51;3.38;;;1.13;;
54959;SDS011;40860;51.710;8.736;2023-12-29T05:36:54;4.85;;;1.35;;
54959;SDS011;40860;51.710;8.736;2023-12-29T05:40:58;3.13;;;1.30;;
54959;SDS011;40860;51.710;8.736;2023-12-29T05:45:02;3.90;;;1.10;;
54959;SDS011;40860;51.710;8.736;2023-12-29T05:49:06;4.05;;;1.20;;
54959;SDS011;40860;51.710;8.736;2023-12-29T05:53:09;2.83;;;1.08;;
54959;SDS011;40860;51.710;8.736;2023-12-29T05:57:13;3.70;;;1.60;;
54959;SDS011;40860;51.710;8.736;2023-12-29T06:01:16;5.00;;;1.25;;
54959;SDS011;40860;51.710;8.736;2023-12-29T06:05:19;3.83;;;1.00;;
54959;SDS011;40860;51.710;8.736;2023-12-29T06:09:21;4.00;;;1.15;;
54959;SDS011;40860;51.710;8.736;2023-12-29T06:13:26;5.50;;;1.17;;
54959;SDS011;40860;51.710;8.736;2023-12-29T06:17:29;4.85;;;1.33;;
54959;SDS011;40860;51.710;8.736;2023-12-29T06:21:33;5.50;;;1.58;;
54959;SDS011;40860;51.710;8.736;2023-12-29T06:25:36;3.83;;;1.23;;
54959;SDS011;40860;51.710;8.736;2023-12-29T06:29:42;5.60;;;1.38;;
54959;SDS011;40860;51.710;8.736;2023-12-29T06:33:45;7.55;;;1.55;;
54959;SDS011;40860;51.710;8.736;2023-12-29T06:37:50;4.50;;;1.40;;
54959;SDS011;40860;51.710;8.736;2023-12-29T06:41:53;6.82;;;2.00;;
54959;SDS011;40860;51.710;8.736;2023-12-29T06:45:58;4.68;;;1.30;;
54959;SDS011;40860;51.710;8.736;2023-12-29T06:50:02;4.35;;;1.65;;
54959;SDS011;40860;51.710;8.736;2023-12-29T06:54:05;2.90;;;1.20;;
54959;SDS011;40860;51.710;8.736;2023-12-29T06:58:09;4.70;;;1.48;;
54959;SDS011;40860;51.710;8.736;2023-12-29T07:02:13;6.78;;;1.50;;
54959;SDS011;40860;51.710;8.736;2023-12-29T07:06:16;5.28;;;1.25;;
54959;SDS011;40860;51.710;8.736;2023-12-29T07:10:19;8.07;;;1.70;;
54959;SDS011;40860;51.710;8.736;2023-12-29T07:14:22;6.68;;;1.15;;
54959;SDS011;40860;51.710;8.736;2023-12-29T07:18:26;5.45;;;1.45;;
54959;SDS011;40860;51.710;8.736;2023-12-29T07:22:29;5.20;;;1.45;;
54959;SDS011;40860;51.710;8.736;2023-12-29T07:26:32;4.82;;;1.45;;
54959;SDS011;40860;51.710;8.736;2023-12-29T07:30:37;5.68;;;1.58;;
54959;SDS011;40860;51.710;8.736;2023-12-29T07:34:41;4.47;;;1.40;;
54959;SDS011;40860;51.710;8.736;2023-12-29T07:38:45;4.50;;;1.13;;
54959;SDS011;40860;51.710;8.736;2023-12-29T07:42:48;4.97;;;1.55;;
54959;SDS011;40860;51.710;8.736;2023-12-29T07:46:52;6.57;;;1.70;;
54959;SDS011;40860;51.710;8.736;2023-12-29T07:50:57;6.03;;;1.13;;
54959;SDS011;40860;51.710;8.736;2023-12-29T07:55:06;3.97;;;1.20;;
54959;SDS011;40860;51.710;8.736;2023-12-29T07:59:09;3.33;;;1.30;;
54959;SDS011;40860;51.710;8.736;2023-12-29T08:03:12;4.38;;;1.50;;
54959;SDS011;40860;51.710;8.736;2023-12-29T08:07:16;3.38;;;1.48;;
54959;SDS011;40860;51.710;8.736;2023-12-29T08:11:19;4.60;;;1.58;;
54959;SDS011;40860;51.710;8.736;2023-12-29T08:15:22;5.28;;;1.20;;
54959;SDS011;40860;51.710;8.736;2023-12-29T08:19:25;6.13;;;1.42;;
54959;SDS011;40860;51.710;8.736;2023-12-29T08:23:30;4.45;;;1.40;;
54959;SDS011;40860;51.710;8.736;2023-12-29T08:27:33;4.72;;;1.23;;
54959;SDS011;40860;51.710;8.736;2023-12-29T08:31:36;8.27;;;1.85;;
54959;SDS011;40860;51.710;8.736;2023-12-29T08:35:39;5.95;;;1.92;;
54959;SDS011;40860;51.710;8.736;2023-12-29T08:39:44;5.05;;;1.77;;
54959;SDS011;40860;51.710;8.736;2023-12-29T08:43:47;5.22;;;1.20;;
54959;SDS011;40860;51.710;8.736;2023-12-29T08:47:50;5.68;;;1.20;;
54959;SDS011;40860;51.710;8.736;2023-12-29T08:51:53;5.22;;;1.30;;
54959;SDS011;40860;51.710;8.736;2023-12-29T08:55:57;6.60;;;1.42;;
54959;SDS011;40860;51.710;8.736;2023-12-29T09:00:00;5.78;;;1.63;;
54959;SDS011;40860;51.710;8.736;2023-12-29T09:04:03;4.28;;;1.13;;
54959;SDS011;40860;51.710;8.736;2023-12-29T09:08:06;3.17;;;0.93;;
54959;SDS011;40860;51.710;8.736;2023-12-29T09:12:10;3.67;;;1.30;;
54959;SDS011;40860;51.710;8.736;2023-12-29T09:16:13;3.97;;;1.30;;
54959;SDS011;40860;51.710;8.736;2023-12-29T09:20:16;6.80;;;1.80;;
54959;SDS011;40860;51.710;8.736;2023-12-29T09:24:19;3.28;;;1.55;;
54959;SDS011;40860;51.710;8.736;2023-12-29T09:28:23;2.92;;;1.10;;
54959;SDS011;40860;51.710;8.736;2023-12-29T09:32:26;3.53;;;1.05;;
54959;SDS011;40860;51.710;8.736;2023-12-29T09:36:29;4.60;;;1.10;;
54959;SDS011;40860;51.710;8.736;2023-12-29T09:40:32;3.55;;;1.08;;
54959;SDS011;40860;51.710;8.736;2023-12-29T09:44:37;2.17;;;0.60;;
54959;SDS011;40860;51.710;8.736;2023-12-29T09:48:40;4.20;;;1.10;;
54959;SDS011;40860;51.710;8.736;2023-12-29T09:52:48;2.78;;;0.90;;
54959;SDS011;40860;51.710;8.736;2023-12-29T09:56:52;2.03;;;0.75;;
54959;SDS011;40860;51.710;8.736;2023-12-29T10:00:56;1.27;;;0.50;;
54959;SDS011;40860;51.710;8.736;2023-12-29T10:05:02;1.23;;;0.60;;
54959;SDS011;40860;51.710;8.736;2023-12-29T10:09:07;1.48;;;0.47;;
54959;SDS011;40860;51.710;8.736;2023-12-29T10:13:15;0.40;;;0.30;;
54959;SDS011;40860;51.710;8.736;2023-12-29T10:17:22;1.20;;;0.25;;
54959;SDS011;40860;51.710;8.736;2023-12-29T10:21:33;1.52;;;0.40;;
54959;SDS011;40860;51.710;8.736;2023-12-29T10:25:42;0.40;;;0.20;;
54959;SDS011;40860;51.710;8.736;2023-12-29T10:29:46;0.52;;;0.30;;
54959;SDS011;40860;51.710;8.736;2023-12-29T10:33:50;1.02;;;0.40;;
54959;SDS011;40860;51.710;8.736;2023-12-29T10:37:54;1.15;;;0.30;;
54959;SDS011;40860;51.710;8.736;2023-12-29T10:42:03;0.60;;;0.30;;
54959;SDS011;40860;51.710;8.736;2023-12-29T10:46:08;0.70;;;0.40;;
54959;SDS011;40860;51.710;8.736;2023-12-29T10:50:14;0.63;;;0.20;;
54959;SDS011;40860;51.710;8.736;2023-12-29T10:54:19;1.25;;;0.30;;
54959;SDS011;40860;51.710;8.736;2023-12-29T10:58:23;0.30;;;0.20;;
54959;SDS011;40860;51.710;8.736;2023-12-29T11:02:28;0.50;;;0.22;;
54959;SDS011;40860;51.710;8.736;2023-12-29T11:06:40;0.10;;;0.10;;
54959;SDS011;40860;51.710;8.736;2023-12-29T11:10:47;0.68;;;0.20;;
54959;SDS011;40860;51.710;8.736;2023-12-29T11:14:51;0.57;;;0.20;;
54959;SDS011;40860;51.710;8.736;2023-12-29T11:18:54;1.38;;;0.20;;
54959;SDS011;40860;51.710;8.736;2023-12-29T11:23:00;0.20;;;0.10;;
54959;SDS011;40860;51.710;8.736;2023-12-29T11:27:03;0.93;;;0.20;;
54959;SDS011;40860;51.710;8.736;2023-12-29T11:31:09;0.25;;;0.20;;
54959;SDS011;40860;51.710;8.736;2023-12-29T11:35:12;0.60;;;0.30;;
54959;SDS011;40860;51.710;8.736;2023-12-29T11:39:24;0.28;;;0.10;;
54959;SDS011;40860;51.710;8.736;2023-12-29T11:43:31;0.85;;;0.47;;
54959;SDS011;40860;51.710;8.736;2023-12-29T11:47:34;0.38;;;0.38;;
54959;SDS011;40860;51.710;8.736;2023-12-29T11:51:40;0.45;;;0.20;;
54959;SDS011;40860;51.710;8.736;2023-12-29T11:55:46;1.98;;;0.20;;
54959;SDS011;40860;51.710;8.736;2023-12-29T11:59:49;0.32;;;0.20;;
54959;SDS011;40860;51.710;8.736;2023-12-29T12:03:52;0.50;;;0.30;;
54959;SDS011;40860;51.710;8.736;2023-12-29T12:07:58;0.15;;;0.10;;
54959;SDS011;40860;51.710;8.736;2023-12-29T12:12:04;0.20;;;0.20;;
54959;SDS011;40860;51.710;8.736;2023-12-29T12:16:08;0.28;;;0.10;;
54959;SDS011;40860;51.710;8.736;2023-12-29T12:20:11;0.30;;;0.20;;
54959;SDS011;40860;51.710;8.736;2023-12-29T12:24:16;0.85;;;0.47;;
54959;SDS011;40860;51.710;8.736;2023-12-29T12:28:22;0.55;;;0.20;;
54959;SDS011;40860;51.710;8.736;2023-12-29T12:32:27;0.43;;;0.40;;
54959;SDS011;40860;51.710;8.736;2023-12-29T12:36:32;1.88;;;1.77;;
54959;SDS011;40860;51.710;8.736;2023-12-29T12:40:49;0.82;;;0.30;;
54959;SDS011;40860;51.710;8.736;2023-12-29T12:44:55;2.10;;;0.20;;
54959;SDS011;40860;51.710;8.736;2023-12-29T12:49:08;1.08;;;0.50;;
54959;SDS011;40860;51.710;8.736;2023-12-29T12:53:12;0.55;;;0.40;;
54959;SDS011;40860;51.710;8.736;2023-12-29T12:57:21;1.10;;;0.50;;
54959;SDS011;40860;51.710;8.736;2023-12-29T13:01:26;0.47;;;0.43;;
54959;SDS011;40860;51.710;8.736;2023-12-29T13:05:29;1.30;;;0.57;;
54959;SDS011;40860;51.710;8.736;2023-12-29T13:09:33;1.15;;;0.52;;
54959;SDS011;40860;51.710;8.736;2023-12-29T13:13:37;2.40;;;1.08;;
54959;SDS011;40860;51.710;8.736;2023-12-29T13:17:50;2.53;;;1.00;;
54959;SDS011;40860;51.710;8.736;2023-12-29T13:21:54;1.55;;;0.73;;
54959;SDS011;40860;51.710;8.736;2023-12-29T13:25:59;2.15;;;0.90;;
54959;SDS011;40860;51.710;8.736;2023-12-29T13:30:07;1.88;;;0.90;;
54959;SDS011;40860;51.710;8.736;2023-12-29T13:34:13;0.95;;;0.57;;
54959;SDS011;40860;51.710;8.736;2023-12-29T13:38:23;2.35;;;0.77;;
54959;SDS011;40860;51.710;8.736;2023-12-29T13:42:30;3.05;;;0.88;;
54959;SDS011;40860;51.710;8.736;2023-12-29T13:46:35;3.00;;;1.10;;
54959;SDS011;40860;51.710;8.736;2023-12-29T13:50:40;1.65;;;1.27;;
54959;SDS011;40860;51.710;8.736;2023-12-29T13:54:47;2.47;;;0.57;;
54959;SDS011;40860;51.710;8.736;2023-12-29T13:58:51;1.80;;;1.00;;
54959;SDS011;40860;51.710;8.736;2023-12-29T14:02:57;1.70;;;0.82;;
54959;SDS011;40860;51.710;8.736;2023-12-29T14:07:09;1.40;;;0.63;;
54959;SDS011;40860;51.710;8.736;2023-12-29T14:11:12;1.88;;;1.00;;
54959;SDS011;40860;51.710;8.736;2023-12-29T14:15:15;2.38;;;0.93;;
54959;SDS011;40860;51.710;8.736;2023-12-29T14:19:18;1.40;;;0.80;;
54959;SDS011;40860;51.710;8.736;2023-12-29T14:23:23;2.35;;;0.90;;
54959;SDS011;40860;51.710;8.736;2023-12-29T14:27:26;2.13;;;1.20;;
54959;SDS011;40860;51.710;8.736;2023-12-29T14:31:30;3.10;;;1.30;;
54959;SDS011;40860;51.710;8.736;2023-12-29T14:35:36;3.10;;;1.60;;
54959;SDS011;40860;51.710;8.736;2023-12-29T14:39:44;3.95;;;1.83;;
54959;SDS011;40860;51.710;8.736;2023-12-29T14:43:50;1.30;;;1.20;;
54959;SDS011;40860;51.710;8.736;2023-12-29T14:47:53;2.05;;;1.60;;
54959;SDS011;40860;51.710;8.736;2023-12-29T14:51:56;2.13;;;0.85;;
54959;SDS011;40860;51.710;8.736;2023-12-29T14:56:00;2.85;;;1.75;;
54959;SDS011;40860;51.710;8.736;2023-12-29T15:00:03;2.63;;;1.88;;
54959;SDS011;40860;51.710;8.736;2023-12-29T15:04:07;1.48;;;1.15;;
54959;SDS011;40860;51.710;8.736;2023-12-29T15:08:12;4.63;;;1.30;;
54959;SDS011;40860;51.710;8.736;2023-12-29T15:12:16;3.28;;;1.70;;
54959;SDS011;40860;51.710;8.736;2023-12-29T15:16:19;1.42;;;0.73;;
54959;SDS011;40860;51.710;8.736;2023-12-29T15:20:22;2.58;;;2.10;;
54959;SDS011;40860;51.710;8.736;2023-12-29T15:24:25;2.38;;;1.60;;
54959;SDS011;40860;51.710;8.736;2023-12-29T15:28:29;5.28;;;1.55;;
54959;SDS011;40860;51.710;8.736;2023-12-29T15:32:32;2.40;;;2.20;;
54959;SDS011;40860;51.710;8.736;2023-12-29T15:36:35;2.42;;;1.00;;
54959;SDS011;40860;51.710;8.736;2023-12-29T15:40:38;1.95;;;1.45;;
54959;SDS011;40860;51.710;8.736;2023-12-29T15:44:42;2.50;;;1.92;;
54959;SDS011;40860;51.710;8.736;2023-12-29T15:48:46;1.50;;;1.00;;
54959;SDS011;40860;51.710;8.736;2023-12-29T15:52:49;2.63;;;1.77;;
54959;SDS011;40860;51.710;8.736;2023-12-29T15:56:52;2.60;;;1.38;;
54959;SDS011;40860;51.710;8.736;2023-12-29T16:00:56;1.40;;;1.00;;
54959;SDS011;40860;51.710;8.736;2023-12-29T16:04:59;2.00;;;0.95;;
54959;SDS011;40860;51.710;8.736;2023-12-29T16:09:02;1.55;;;0.80;;
54959;SDS011;40860;51.710;8.736;2023-12-29T16:13:06;2.63;;;1.30;;
54959;SDS011;40860;51.710;8.736;2023-12-29T16:17:10;1.73;;;1.60;;
54959;SDS011;40860;51.710;8.736;2023-12-29T16:21:13;4.03;;;2.10;;
54959;SDS011;40860;51.710;8.736;2023-12-29T16:25:16;4.70;;;1.95;;
54959;SDS011;40860;51.710;8.736;2023-12-29T16:29:19;3.67;;;2.05;;
54959;SDS011;40860;51.710;8.736;2023-12-29T16:33:23;3.17;;;1.27;;
54959;SDS011;40860;51.710;8.736;2023-12-29T16:37:28;3.95;;;1.20;;
54959;SDS011;40860;51.710;8.736;2023-12-29T16:41:31;1.70;;;0.90;;
54959;SDS011;40860;51.710;8.736;2023-12-29T16:45:35;2.00;;;0.70;;
54959;SDS011;40860;51.710;8.736;2023-12-29T16:49:39;0.90;;;0.70;;
54959;SDS011;40860;51.710;8.736;2023-12-29T16:53:43;0.80;;;0.60;;
54959;SDS011;40860;51.710;8.736;2023-12-29T16:57:46;0.55;;;0.55;;
54959;SDS011;40860;51.710;8.736;2023-12-29T17:01:51;0.50;;;0.50;;
54959;SDS011;40860;51.710;8.736;2023-12-29T17:05:57;0.55;;;0.52;;
54959;SDS011;40860;51.710;8.736;2023-12-29T17:10:00;1.60;;;0.52;;
54959;SDS011;40860;51.710;8.736;2023-12-29T17:14:03;0.52;;;0.30;;
54959;SDS011;40860;51.710;8.736;2023-12-29T17:18:06;0.40;;;0.40;;
54959;SDS011;40860;51.710;8.736;2023-12-29T17:22:10;0.93;;;0.70;;
54959;SDS011;40860;51.710;8.736;2023-12-29T17:26:13;1.85;;;0.70;;
54959;SDS011;40860;51.710;8.736;2023-12-29T17:30:17;1.23;;;0.70;;
54959;SDS011;40860;51.710;8.736;2023-12-29T17:34:20;0.52;;;0.50;;
54959;SDS011;40860;51.710;8.736;2023-12-29T17:38:25;1.33;;;0.70;;
54959;SDS011;40860;51.710;8.736;2023-12-29T17:42:28;0.60;;;0.50;;
54959;SDS011;40860;51.710;8.736;2023-12-29T17:46:31;1.85;;;0.70;;
54959;SDS011;40860;51.710;8.736;2023-12-29T17:50:34;1.13;;;0.70;;
54959;SDS011;40860;51.710;8.736;2023-12-29T17:54:38;2.47;;;0.90;;
54959;SDS011;40860;51.710;8.736;2023-12-29T17:58:43;2.35;;;0.80;;
54959;SDS011;40860;51.710;8.736;2023-12-29T18:02:46;2.00;;;0.93;;
54959;SDS011;40860;51.710;8.736;2023-12-29T18:06:49;2.03;;;0.90;;
54959;SDS011;40860;51.710;8.736;2023-12-29T18:11:05;0.80;;;0.80;;
54959;SDS011;40860;51.710;8.736;2023-12-29T18:15:08;3.35;;;1.45;;
54959;SDS011;40860;51.710;8.736;2023-12-29T18:19:12;1.33;;;0.80;;
54959;SDS011;40860;51.710;8.736;2023-12-29T18:23:15;1.02;;;0.93;;
54959;SDS011;40860;51.710;8.736;2023-12-29T18:27:20;1.67;;;0.88;;
54959;SDS011;40860;51.710;8.736;2023-12-29T18:31:23;1.30;;;0.80;;
54959;SDS011;40860;51.710;8.736;2023-12-29T18:35:26;1.27;;;0.60;;
54959;SDS011;40860;51.710;8.736;2023-12-29T18:39:29;1.15;;;0.60;;
54959;SDS011;40860;51.710;8.736;2023-12-29T18:43:33;1.33;;;0.60;;
54959;SDS011;40860;51.710;8.736;2023-12-29T18:47:37;0.80;;;0.60;;
54959;SDS011;40860;51.710;8.736;2023-12-29T18:51:40;0.40;;;0.40;;
54959;SDS011;40860;51.710;8.736;2023-12-29T18:55:43;0.50;;;0.50;;
54959;SDS011;40860;51.710;8.736;2023-12-29T18:59:47;1.08;;;0.60;;
54959;SDS011;40860;51.710;8.736;2023-12-29T19:03:50;0.85;;;0.60;;
54959;SDS011;40860;51.710;8.736;2023-12-29T19:07:53;1.23;;;0.65;;
54959;SDS011;40860;51.710;8.736;2023-12-29T19:11:57;0.70;;;0.70;;
54959;SDS011;40860;51.710;8.736;2023-12-29T19:16:01;3.00;;;0.88;;
54959;SDS011;40860;51.710;8.736;2023-12-29T19:20:05;0.77;;;0.60;;
54959;SDS011;40860;51.710;8.736;2023-12-29T19:24:10;1.75;;;0.70;;
54959;SDS011;40860;51.710;8.736;2023-12-29T19:28:14;1.65;;;0.70;;
54959;SDS011;40860;51.710;8.736;2023-12-29T19:32:18;1.80;;;0.80;;
54959;SDS011;40860;51.710;8.736;2023-12-29T19:36:21;0.88;;;0.60;;
54959;SDS011;40860;51.710;8.736;2023-12-29T19:40:24;1.17;;;0.40;;
54959;SDS011;40860;51.710;8.736;2023-12-29T19:44:27;1.70;;;0.63;;
54959;SDS011;40860;51.710;8.736;2023-12-29T19:48:31;1.35;;;0.60;;
54959;SDS011;40860;51.710;8.736;2023-12-29T19:52:35;2.40;;;0.90;;
54959;SDS011;40860;51.710;8.736;2023-12-29T19:56:38;1.30;;;0.90;;
54959;SDS011;40860;51.710;8.736;2023-12-29T20:00:41;3.35;;;0.90;;
54959;SDS011;40860;51.710;8.736;2023-12-29T20:04:46;3.25;;;1.20;;
54959;SDS011;40860;51.710;8.736;2023-12-29T20:08:49;4.18;;;1.17;;
54959;SDS011;40860;51.710;8.736;2023-12-29T20:12:52;2.58;;;1.10;;
54959;SDS011;40860;51.710;8.736;2023-12-29T20:16:55;4.68;;;1.27;;
54959;SDS011;40860;51.710;8.736;2023-12-29T20:21:00;4.97;;;1.55;;
54959;SDS011;40860;51.710;8.736;2023-12-29T20:25:04;3.72;;;1.30;;
54959;SDS011;40860;51.710;8.736;2023-12-29T20:29:08;6.05;;;1.45;;
54959;SDS011;40860;51.710;8.736;2023-12-29T20:33:11;5.15;;;1.10;;
54959;SDS011;40860;51.710;8.736;2023-12-29T20:37:15;7.63;;;2.40;;
54959;SDS011;40860;51.710;8.736;2023-12-29T20:41:19;5.25;;;1.30;;
54959;SDS011;40860;51.710;8.736;2023-12-29T20:45:23;3.33;;;1.33;;
54959;SDS011;40860;51.710;8.736;2023-12-29T20:49:26;2.90;;;1.20;;
54959;SDS011;40860;51.710;8.736;2023-12-29T20:53:30;5.95;;;1.90;;
54959;SDS011;40860;51.710;8.736;2023-12-29T20:57:33;3.53;;;1.83;;
54959;SDS011;40860;51.710;8.736;2023-12-29T21:01:36;4.90;;;1.50;;
54959;SDS011;40860;51.710;8.736;2023-12-29T21:05:40;3.60;;;2.25;;
54959;SDS011;40860;51.710;8.736;2023-12-29T21:09:44;3.05;;;1.42;;
54959;SDS011;40860;51.710;8.736;2023-12-29T21:13:49;2.60;;;0.82;;
54959;SDS011;40860;51.710;8.736;2023-12-29T21:17:52;1.52;;;0.85;;
54959;SDS011;40860;51.710;8.736;2023-12-29T21:21:55;2.63;;;1.35;;
54959;SDS011;40860;51.710;8.736;2023-12-29T21:25:59;5.32;;;1.55;;
54959;SDS011;40860;51.710;8.736;2023-12-29T21:30:03;3.70;;;1.98;;
54959;SDS011;40860;51.710;8.736;2023-12-29T21:34:07;2.67;;;1.70;;
54959;SDS011;40860;51.710;8.736;2023-12-29T21:38:11;3.35;;;1.60;;
54959;SDS011;40860;51.710;8.736;2023-12-29T21:42:15;3.50;;;1.05;;
54959;SDS011;40860;51.710;8.736;2023-12-29T21:46:18;2.42;;;0.98;;
54959;SDS011;40860;51.710;8.736;2023-12-29T21:50:22;2.95;;;1.70;;
54959;SDS011;40860;51.710;8.736;2023-12-29T21:54:25;2.63;;;1.05;;
54959;SDS011;40860;51.710;8.736;2023-12-29T21:58:30;2.40;;;0.82;;
54959;SDS011;40860;51.710;8.736;2023-12-29T22:02:33;2.33;;;2.00;;
54959;SDS011;40860;51.710;8.736;2023-12-29T22:06:37;3.83;;;1.35;;
54959;SDS011;40860;51.710;8.736;2023-12-29T22:10:41;3.25;;;1.17;;
54959;SDS011;40860;51.710;8.736;2023-12-29T22:14:45;3.67;;;1.15;;
54959;SDS011;40860;51.710;8.736;2023-12-29T22:18:48;4.22;;;1.20;;
54959;SDS011;40860;51.710;8.736;2023-12-29T22:22:51;2.40;;;1.33;;
54959;SDS011;40860;51.710;8.736;2023-12-29T22:26:54;5.15;;;1.40;;
54959;SDS011;40860;51.710;8.736;2023-12-29T22:30:59;4.35;;;1.60;;
54959;SDS011;40860;51.710;8.736;2023-12-29T22:35:03;4.60;;;1.60;;
54959;SDS011;40860;51.710;8.736;2023-12-29T22:39:06;5.05;;;1.73;;
54959;SDS011;40860;51.710;8.736;2023-12-29T22:43:10;4.03;;;1.63;;
54959;SDS011;40860;51.710;8.736;2023-12-29T22:47:17;3.58;;;1.20;;
54959;SDS011;40860;51.710;8.736;2023-12-29T22:51:19;4.85;;;1.60;;
54959;SDS011;40860;51.710;8.736;2023-12-29T22:55:22;3.17;;;1.40;;
54959;SDS011;40860;51.710;8.736;2023-12-29T22:59:27;2.50;;;1.35;;
54959;SDS011;40860;51.710;8.736;2023-12-29T23:03:34;4.80;;;1.50;;
54959;SDS011;40860;51.710;8.736;2023-12-29T23:07:37;6.72;;;2.53;;
54959;SDS011;40860;51.710;8.736;2023-12-29T23:11:40;2.90;;;1.65;;
54959;SDS011;40860;51.710;8.736;2023-12-29T23:15:43;8.73;;;3.10;;
54959;SDS011;40860;51.710;8.736;2023-12-29T23:19:47;4.68;;;2.65;;
54959;SDS011;40860;51.710;8.736;2023-12-29T23:23:50;6.85;;;2.50;;
54959;SDS011;40860;51.710;8.736;2023-12-29T23:27:53;6.10;;;2.10;;
54959;SDS011;40860;51.710;8.736;2023-12-29T23:31:56;7.70;;;2.75;;
54959;SDS011;40860;51.710;8.736;2023-12-29T23:36:00;7.85;;;2.22;;
54959;SDS011;40860;51.710;8.736;2023-12-29T23:40:04;6.43;;;1.95;;
54959;SDS011;40860;51.710;8.736;2023-12-29T23:44:07;5.93;;;1.35;;
54959;SDS011;40860;51.710;8.736;2023-12-29T23:48:10;8.07;;;1.88;;
54959;SDS011;40860;51.710;8.736;2023-12-29T23:52:16;4.45;;;2.00;;
54959;SDS011;40860;51.710;8.736;2023-12-29T23:56:18;8.25;;;2.15;;
